sensor_id;sensor_type;location;lat;lon;timestamp;P1;durP1;ratioP1;P2;durP2;ratioP2
6019;SDS011;3038;51.122;6.840;2022-10-31T00:01:54;15.47;;;11.50;;
6019;SDS011;3038;51.122;6.840;2022-10-31T00:04:19;15.93;;;10.60;;
6019;SDS011;3038;51.122;6.840;2022-10-31T00:06:45;13.63;;;11.13;;
6019;SDS011;3038;51.122;6.840;2022-10-31T00:09:10;18.53;;;11.90;;
6019;SDS011;3038;51.122;6.840;2022-10-31T00:11:36;13.40;;;11.30;;
6019;SDS011;3038;51.122;6.840;2022-10-31T00:14:01;11.83;;;9.87;;
6019;SDS011;3038;51.122;6.840;2022-10-31T00:16:27;13.73;;;11.13;;
6019;SDS011;3038;51.122;6.840;2022-10-31T00:18:54;17.50;;;11.27;;
6019;SDS011;3038;51.122;6.840;2022-10-31T00:21:21;15.60;;;10.93;;
6019;SDS011;3038;51.122;6.840;2022-10-31T00:23:47;11.70;;;10.20;;
6019;SDS011;3038;51.122;6.840;2022-10-31T00:26:13;14.47;;;11.63;;
6019;SDS011;3038;51.122;6.840;2022-10-31T00:28:39;13.67;;;10.60;;
6019;SDS011;3038;51.122;6.840;2022-10-31T00:31:06;13.23;;;9.97;;
6019;SDS011;3038;51.122;6.840;2022-10-31T00:33:33;14.60;;;11.60;;
6019;SDS011;3038;51.122;6.840;2022-10-31T00:35:59;14.50;;;10.90;;
6019;SDS011;3038;51.122;6.840;2022-10-31T00:38:25;15.00;;;9.90;;
6019;SDS011;3038;51.122;6.840;2022-10-31T00:40:50;14.17;;;9.67;;
6019;SDS011;3038;51.122;6.840;2022-10-31T00:43:15;10.83;;;9.80;;
6019;SDS011;3038;51.122;6.840;2022-10-31T00:45:41;13.30;;;10.20;;
6019;SDS011;3038;51.122;6.840;2022-10-31T00:48:08;11.77;;;10.57;;
6019;SDS011;3038;51.122;6.840;2022-10-31T00:50:34;14.47;;;10.83;;
6019;SDS011;3038;51.122;6.840;2022-10-31T00:52:59;13.83;;;10.67;;
6019;SDS011;3038;51.122;6.840;2022-10-31T00:55:24;11.70;;;10.50;;
6019;SDS011;3038;51.122;6.840;2022-10-31T00:57:50;12.50;;;9.90;;
6019;SDS011;3038;51.122;6.840;2022-10-31T01:00:15;11.97;;;10.77;;
6019;SDS011;3038;51.122;6.840;2022-10-31T01:02:41;15.33;;;10.50;;
6019;SDS011;3038;51.122;6.840;2022-10-31T01:05:06;13.80;;;12.30;;
6019;SDS011;3038;51.122;6.840;2022-10-31T01:07:35;11.63;;;10.43;;
6019;SDS011;3038;51.122;6.840;2022-10-31T01:10:01;13.93;;;10.27;;
6019;SDS011;3038;51.122;6.840;2022-10-31T01:12:26;12.67;;;10.53;;
6019;SDS011;3038;51.122;6.840;2022-10-31T01:14:51;12.47;;;9.90;;
6019;SDS011;3038;51.122;6.840;2022-10-31T01:17:17;13.23;;;11.37;;
6019;SDS011;3038;51.122;6.840;2022-10-31T01:19:42;11.73;;;10.43;;
6019;SDS011;3038;51.122;6.840;2022-10-31T01:22:07;12.27;;;10.43;;
6019;SDS011;3038;51.122;6.840;2022-10-31T01:24:33;11.83;;;10.40;;
6019;SDS011;3038;51.122;6.840;2022-10-31T01:26:58;14.37;;;11.37;;
6019;SDS011;3038;51.122;6.840;2022-10-31T01:29:24;12.40;;;11.10;;
6019;SDS011;3038;51.122;6.840;2022-10-31T01:31:49;14.10;;;12.03;;
6019;SDS011;3038;51.122;6.840;2022-10-31T01:34:15;14.70;;;11.27;;
6019;SDS011;3038;51.122;6.840;2022-10-31T01:36:42;13.00;;;10.63;;
6019;SDS011;3038;51.122;6.840;2022-10-31T01:39:13;14.87;;;11.07;;
6019;SDS011;3038;51.122;6.840;2022-10-31T01:41:44;18.53;;;12.03;;
6019;SDS011;3038;51.122;6.840;2022-10-31T01:46:44;14.70;;;10.57;;
6019;SDS011;3038;51.122;6.840;2022-10-31T01:51:56;15.30;;;12.90;;
6019;SDS011;3038;51.122;6.840;2022-10-31T01:54:29;16.23;;;12.77;;
6019;SDS011;3038;51.122;6.840;2022-10-31T01:56:59;14.83;;;10.97;;
6019;SDS011;3038;51.122;6.840;2022-10-31T01:59:27;16.07;;;12.77;;
6019;SDS011;3038;51.122;6.840;2022-10-31T02:01:56;14.80;;;11.43;;
6019;SDS011;3038;51.122;6.840;2022-10-31T02:04:22;18.03;;;13.03;;
6019;SDS011;3038;51.122;6.840;2022-10-31T02:06:51;14.80;;;11.80;;
6019;SDS011;3038;51.122;6.840;2022-10-31T02:09:21;12.93;;;11.70;;
6019;SDS011;3038;51.122;6.840;2022-10-31T02:11:52;22.00;;;12.00;;
6019;SDS011;3038;51.122;6.840;2022-10-31T02:14:23;16.60;;;12.80;;
6019;SDS011;3038;51.122;6.840;2022-10-31T02:16:51;16.00;;;11.40;;
6019;SDS011;3038;51.122;6.840;2022-10-31T02:19:30;16.17;;;12.83;;
6019;SDS011;3038;51.122;6.840;2022-10-31T02:22:08;13.93;;;12.47;;
6019;SDS011;3038;51.122;6.840;2022-10-31T02:24:45;16.47;;;11.57;;
6019;SDS011;3038;51.122;6.840;2022-10-31T02:30:18;14.20;;;11.80;;
6019;SDS011;3038;51.122;6.840;2022-10-31T02:36:10;17.87;;;12.27;;
6019;SDS011;3038;51.122;6.840;2022-10-31T02:44:22;13.63;;;12.23;;
6019;SDS011;3038;51.122;6.840;2022-10-31T02:46:57;15.27;;;13.03;;
6019;SDS011;3038;51.122;6.840;2022-10-31T02:52:27;13.83;;;12.27;;
6019;SDS011;3038;51.122;6.840;2022-10-31T02:54:55;13.23;;;11.87;;
6019;SDS011;3038;51.122;6.840;2022-10-31T02:57:22;14.93;;;11.77;;
6019;SDS011;3038;51.122;6.840;2022-10-31T02:59:53;16.40;;;12.33;;
6019;SDS011;3038;51.122;6.840;2022-10-31T03:02:25;15.03;;;11.27;;
6019;SDS011;3038;51.122;6.840;2022-10-31T03:13:39;15.37;;;12.23;;
6019;SDS011;3038;51.122;6.840;2022-10-31T03:21:36;15.07;;;12.50;;
6019;SDS011;3038;51.122;6.840;2022-10-31T03:24:08;15.50;;;12.03;;
6019;SDS011;3038;51.122;6.840;2022-10-31T03:26:35;17.13;;;12.27;;
6019;SDS011;3038;51.122;6.840;2022-10-31T03:29:07;18.83;;;12.63;;
6019;SDS011;3038;51.122;6.840;2022-10-31T03:31:37;18.70;;;11.17;;
6019;SDS011;3038;51.122;6.840;2022-10-31T03:34:07;12.37;;;11.07;;
6019;SDS011;3038;51.122;6.840;2022-10-31T03:36:35;13.90;;;11.07;;
6019;SDS011;3038;51.122;6.840;2022-10-31T03:39:05;17.97;;;12.40;;
6019;SDS011;3038;51.122;6.840;2022-10-31T03:41:36;18.33;;;11.97;;
6019;SDS011;3038;51.122;6.840;2022-10-31T03:44:06;20.63;;;13.57;;
6019;SDS011;3038;51.122;6.840;2022-10-31T03:46:36;13.30;;;11.87;;
6019;SDS011;3038;51.122;6.840;2022-10-31T03:49:02;12.83;;;10.83;;
6019;SDS011;3038;51.122;6.840;2022-10-31T03:51:50;19.60;;;13.63;;
6019;SDS011;3038;51.122;6.840;2022-10-31T03:57:17;16.03;;;11.90;;
6019;SDS011;3038;51.122;6.840;2022-10-31T03:59:51;19.83;;;12.30;;
6019;SDS011;3038;51.122;6.840;2022-10-31T04:02:22;14.83;;;12.30;;
6019;SDS011;3038;51.122;6.840;2022-10-31T04:04:54;13.90;;;12.07;;
6019;SDS011;3038;51.122;6.840;2022-10-31T04:07:20;15.63;;;12.10;;
6019;SDS011;3038;51.122;6.840;2022-10-31T04:09:51;12.53;;;11.23;;
6019;SDS011;3038;51.122;6.840;2022-10-31T04:12:18;12.53;;;11.20;;
6019;SDS011;3038;51.122;6.840;2022-10-31T04:14:45;15.57;;;12.07;;
6019;SDS011;3038;51.122;6.840;2022-10-31T04:17:14;12.70;;;11.40;;
6019;SDS011;3038;51.122;6.840;2022-10-31T04:19:42;18.70;;;14.27;;
6019;SDS011;3038;51.122;6.840;2022-10-31T04:22:07;14.43;;;12.90;;
6019;SDS011;3038;51.122;6.840;2022-10-31T04:24:33;14.63;;;12.97;;
6019;SDS011;3038;51.122;6.840;2022-10-31T04:26:58;14.93;;;11.97;;
6019;SDS011;3038;51.122;6.840;2022-10-31T04:29:23;13.03;;;11.67;;
6019;SDS011;3038;51.122;6.840;2022-10-31T04:31:49;18.10;;;13.00;;
6019;SDS011;3038;51.122;6.840;2022-10-31T04:34:15;13.70;;;11.57;;
6019;SDS011;3038;51.122;6.840;2022-10-31T04:36:41;16.23;;;12.23;;
6019;SDS011;3038;51.122;6.840;2022-10-31T04:39:06;15.13;;;12.00;;
6019;SDS011;3038;51.122;6.840;2022-10-31T04:41:31;16.00;;;12.37;;
6019;SDS011;3038;51.122;6.840;2022-10-31T04:43:57;14.37;;;12.60;;
6019;SDS011;3038;51.122;6.840;2022-10-31T04:46:22;13.97;;;12.47;;
6019;SDS011;3038;51.122;6.840;2022-10-31T04:48:48;17.53;;;11.40;;
6019;SDS011;3038;51.122;6.840;2022-10-31T04:51:13;19.97;;;13.80;;
6019;SDS011;3038;51.122;6.840;2022-10-31T04:53:39;14.53;;;11.70;;
6019;SDS011;3038;51.122;6.840;2022-10-31T04:56:04;14.13;;;11.70;;
6019;SDS011;3038;51.122;6.840;2022-10-31T04:58:30;17.50;;;13.27;;
6019;SDS011;3038;51.122;6.840;2022-10-31T05:00:55;17.10;;;11.43;;
6019;SDS011;3038;51.122;6.840;2022-10-31T05:03:21;15.30;;;11.33;;
6019;SDS011;3038;51.122;6.840;2022-10-31T05:05:47;17.93;;;13.50;;
6019;SDS011;3038;51.122;6.840;2022-10-31T05:08:13;17.00;;;13.43;;
6019;SDS011;3038;51.122;6.840;2022-10-31T05:10:39;22.60;;;14.03;;
6019;SDS011;3038;51.122;6.840;2022-10-31T05:13:04;17.17;;;11.93;;
6019;SDS011;3038;51.122;6.840;2022-10-31T05:15:30;21.43;;;12.47;;
6019;SDS011;3038;51.122;6.840;2022-10-31T05:17:56;15.93;;;11.57;;
6019;SDS011;3038;51.122;6.840;2022-10-31T05:20:22;18.90;;;13.87;;
6019;SDS011;3038;51.122;6.840;2022-10-31T05:22:51;12.80;;;10.60;;
6019;SDS011;3038;51.122;6.840;2022-10-31T05:25:18;16.07;;;12.00;;
6019;SDS011;3038;51.122;6.840;2022-10-31T05:27:45;16.40;;;12.37;;
6019;SDS011;3038;51.122;6.840;2022-10-31T05:30:12;15.07;;;11.70;;
6019;SDS011;3038;51.122;6.840;2022-10-31T05:32:46;16.70;;;14.47;;
6019;SDS011;3038;51.122;6.840;2022-10-31T05:35:13;15.23;;;12.97;;
6019;SDS011;3038;51.122;6.840;2022-10-31T05:37:44;14.50;;;12.13;;
6019;SDS011;3038;51.122;6.840;2022-10-31T05:40:10;16.83;;;12.50;;
6019;SDS011;3038;51.122;6.840;2022-10-31T05:42:40;14.40;;;12.87;;
6019;SDS011;3038;51.122;6.840;2022-10-31T05:45:07;16.23;;;12.57;;
6019;SDS011;3038;51.122;6.840;2022-10-31T05:47:34;14.67;;;12.37;;
6019;SDS011;3038;51.122;6.840;2022-10-31T05:49:59;17.90;;;13.13;;
6019;SDS011;3038;51.122;6.840;2022-10-31T05:52:25;18.03;;;13.40;;
6019;SDS011;3038;51.122;6.840;2022-10-31T05:54:50;15.20;;;12.30;;
6019;SDS011;3038;51.122;6.840;2022-10-31T05:57:15;16.27;;;13.80;;
6019;SDS011;3038;51.122;6.840;2022-10-31T05:59:41;22.37;;;14.30;;
6019;SDS011;3038;51.122;6.840;2022-10-31T06:02:06;16.07;;;14.37;;
6019;SDS011;3038;51.122;6.840;2022-10-31T06:04:32;19.40;;;13.20;;
6019;SDS011;3038;51.122;6.840;2022-10-31T06:06:57;17.77;;;13.53;;
6019;SDS011;3038;51.122;6.840;2022-10-31T06:09:22;18.87;;;13.30;;
6019;SDS011;3038;51.122;6.840;2022-10-31T06:11:48;19.40;;;13.50;;
6019;SDS011;3038;51.122;6.840;2022-10-31T06:14:13;20.83;;;13.30;;
6019;SDS011;3038;51.122;6.840;2022-10-31T06:16:39;18.27;;;14.60;;
6019;SDS011;3038;51.122;6.840;2022-10-31T06:19:04;21.43;;;14.70;;
6019;SDS011;3038;51.122;6.840;2022-10-31T06:21:29;17.33;;;14.20;;
6019;SDS011;3038;51.122;6.840;2022-10-31T06:23:55;18.70;;;13.57;;
6019;SDS011;3038;51.122;6.840;2022-10-31T06:26:20;21.10;;;14.30;;
6019;SDS011;3038;51.122;6.840;2022-10-31T06:28:45;17.53;;;13.60;;
6019;SDS011;3038;51.122;6.840;2022-10-31T06:31:11;19.97;;;13.60;;
6019;SDS011;3038;51.122;6.840;2022-10-31T06:33:36;22.87;;;13.60;;
6019;SDS011;3038;51.122;6.840;2022-10-31T06:36:02;18.47;;;15.17;;
6019;SDS011;3038;51.122;6.840;2022-10-31T06:38:27;17.67;;;15.00;;
6019;SDS011;3038;51.122;6.840;2022-10-31T06:40:53;21.00;;;14.27;;
6019;SDS011;3038;51.122;6.840;2022-10-31T06:43:20;24.40;;;15.57;;
6019;SDS011;3038;51.122;6.840;2022-10-31T06:45:46;19.40;;;14.90;;
6019;SDS011;3038;51.122;6.840;2022-10-31T06:48:12;19.03;;;16.00;;
6019;SDS011;3038;51.122;6.840;2022-10-31T06:50:37;21.80;;;15.00;;
6019;SDS011;3038;51.122;6.840;2022-10-31T06:53:02;19.33;;;15.47;;
6019;SDS011;3038;51.122;6.840;2022-10-31T06:55:28;19.70;;;14.93;;
6019;SDS011;3038;51.122;6.840;2022-10-31T06:57:57;22.10;;;16.70;;
6019;SDS011;3038;51.122;6.840;2022-10-31T07:00:24;25.87;;;15.17;;
6019;SDS011;3038;51.122;6.840;2022-10-31T07:05:24;19.40;;;15.77;;
6019;SDS011;3038;51.122;6.840;2022-10-31T07:07:57;19.00;;;14.33;;
6019;SDS011;3038;51.122;6.840;2022-10-31T07:10:25;18.83;;;14.00;;
6019;SDS011;3038;51.122;6.840;2022-10-31T07:12:54;18.27;;;13.73;;
6019;SDS011;3038;51.122;6.840;2022-10-31T07:15:24;18.77;;;15.00;;
6019;SDS011;3038;51.122;6.840;2022-10-31T07:17:51;19.77;;;15.60;;
6019;SDS011;3038;51.122;6.840;2022-10-31T07:20:16;17.43;;;14.13;;
6019;SDS011;3038;51.122;6.840;2022-10-31T07:22:42;18.20;;;16.27;;
6019;SDS011;3038;51.122;6.840;2022-10-31T07:25:07;16.30;;;14.10;;
6019;SDS011;3038;51.122;6.840;2022-10-31T07:27:39;20.00;;;16.40;;
6019;SDS011;3038;51.122;6.840;2022-10-31T07:30:06;18.17;;;15.23;;
6019;SDS011;3038;51.122;6.840;2022-10-31T07:32:43;23.97;;;13.70;;
6019;SDS011;3038;51.122;6.840;2022-10-31T07:35:10;18.53;;;15.27;;
6019;SDS011;3038;51.122;6.840;2022-10-31T07:37:38;17.57;;;14.77;;
6019;SDS011;3038;51.122;6.840;2022-10-31T07:40:04;17.87;;;15.70;;
6019;SDS011;3038;51.122;6.840;2022-10-31T07:42:35;18.43;;;14.60;;
6019;SDS011;3038;51.122;6.840;2022-10-31T07:45:04;17.83;;;15.87;;
6019;SDS011;3038;51.122;6.840;2022-10-31T07:47:40;17.67;;;14.70;;
6019;SDS011;3038;51.122;6.840;2022-10-31T07:50:17;16.73;;;13.83;;
6019;SDS011;3038;51.122;6.840;2022-10-31T07:52:47;17.47;;;14.07;;
6019;SDS011;3038;51.122;6.840;2022-10-31T07:55:13;19.60;;;14.17;;
6019;SDS011;3038;51.122;6.840;2022-10-31T07:57:39;18.53;;;14.33;;
6019;SDS011;3038;51.122;6.840;2022-10-31T08:00:05;17.23;;;14.60;;
6019;SDS011;3038;51.122;6.840;2022-10-31T08:02:32;20.50;;;14.77;;
6019;SDS011;3038;51.122;6.840;2022-10-31T08:04:58;23.60;;;15.87;;
6019;SDS011;3038;51.122;6.840;2022-10-31T08:07:24;18.50;;;14.13;;
6019;SDS011;3038;51.122;6.840;2022-10-31T08:09:50;16.83;;;14.67;;
6019;SDS011;3038;51.122;6.840;2022-10-31T08:12:16;20.50;;;13.70;;
6019;SDS011;3038;51.122;6.840;2022-10-31T08:14:41;17.93;;;14.40;;
6019;SDS011;3038;51.122;6.840;2022-10-31T08:17:06;22.53;;;15.90;;
6019;SDS011;3038;51.122;6.840;2022-10-31T08:19:32;20.80;;;15.20;;
6019;SDS011;3038;51.122;6.840;2022-10-31T08:21:57;16.43;;;13.97;;
6019;SDS011;3038;51.122;6.840;2022-10-31T08:24:23;19.97;;;15.30;;
6019;SDS011;3038;51.122;6.840;2022-10-31T08:26:49;19.23;;;15.90;;
6019;SDS011;3038;51.122;6.840;2022-10-31T08:29:15;25.57;;;14.33;;
6019;SDS011;3038;51.122;6.840;2022-10-31T08:31:41;19.20;;;15.57;;
6019;SDS011;3038;51.122;6.840;2022-10-31T08:34:07;18.00;;;15.43;;
6019;SDS011;3038;51.122;6.840;2022-10-31T08:36:32;19.07;;;14.83;;
6019;SDS011;3038;51.122;6.840;2022-10-31T08:38:58;16.67;;;13.93;;
6019;SDS011;3038;51.122;6.840;2022-10-31T08:41:24;19.87;;;14.60;;
6019;SDS011;3038;51.122;6.840;2022-10-31T08:43:49;17.87;;;14.00;;
6019;SDS011;3038;51.122;6.840;2022-10-31T08:46:15;21.33;;;13.87;;
6019;SDS011;3038;51.122;6.840;2022-10-31T08:48:40;18.70;;;14.20;;
6019;SDS011;3038;51.122;6.840;2022-10-31T08:51:06;15.83;;;14.03;;
6019;SDS011;3038;51.122;6.840;2022-10-31T08:53:31;17.80;;;14.00;;
6019;SDS011;3038;51.122;6.840;2022-10-31T08:55:57;18.17;;;15.20;;
6019;SDS011;3038;51.122;6.840;2022-10-31T08:58:23;16.67;;;14.07;;
6019;SDS011;3038;51.122;6.840;2022-10-31T09:00:50;16.90;;;14.40;;
6019;SDS011;3038;51.122;6.840;2022-10-31T09:03:21;18.90;;;14.10;;
6019;SDS011;3038;51.122;6.840;2022-10-31T09:05:48;19.87;;;14.13;;
6019;SDS011;3038;51.122;6.840;2022-10-31T09:08:14;18.77;;;13.20;;
6019;SDS011;3038;51.122;6.840;2022-10-31T09:10:40;19.13;;;14.10;;
6019;SDS011;3038;51.122;6.840;2022-10-31T09:13:06;18.80;;;14.97;;
6019;SDS011;3038;51.122;6.840;2022-10-31T09:15:36;16.23;;;13.83;;
6019;SDS011;3038;51.122;6.840;2022-10-31T09:18:03;18.87;;;14.97;;
6019;SDS011;3038;51.122;6.840;2022-10-31T09:20:30;17.63;;;13.30;;
6019;SDS011;3038;51.122;6.840;2022-10-31T09:22:57;16.80;;;13.33;;
6019;SDS011;3038;51.122;6.840;2022-10-31T09:25:24;18.70;;;13.73;;
6019;SDS011;3038;51.122;6.840;2022-10-31T09:27:49;18.97;;;13.40;;
6019;SDS011;3038;51.122;6.840;2022-10-31T09:30:15;15.60;;;13.90;;
6019;SDS011;3038;51.122;6.840;2022-10-31T09:32:40;20.67;;;13.80;;
6019;SDS011;3038;51.122;6.840;2022-10-31T09:35:06;15.20;;;13.50;;
6019;SDS011;3038;51.122;6.840;2022-10-31T09:37:31;15.83;;;14.00;;
6019;SDS011;3038;51.122;6.840;2022-10-31T09:39:57;15.73;;;13.13;;
6019;SDS011;3038;51.122;6.840;2022-10-31T09:45:05;15.97;;;13.80;;
6019;SDS011;3038;51.122;6.840;2022-10-31T09:47:58;15.43;;;12.83;;
6019;SDS011;3038;51.122;6.840;2022-10-31T09:50:36;18.87;;;13.20;;
6019;SDS011;3038;51.122;6.840;2022-10-31T09:55:56;16.67;;;14.27;;
6019;SDS011;3038;51.122;6.840;2022-10-31T09:58:24;19.33;;;14.27;;
6019;SDS011;3038;51.122;6.840;2022-10-31T10:00:52;15.30;;;13.73;;
6019;SDS011;3038;51.122;6.840;2022-10-31T10:06:06;16.10;;;13.80;;
6019;SDS011;3038;51.122;6.840;2022-10-31T10:08:46;22.70;;;15.13;;
6019;SDS011;3038;51.122;6.840;2022-10-31T10:25:22;14.70;;;13.20;;
6019;SDS011;3038;51.122;6.840;2022-10-31T10:28:14;19.43;;;13.83;;
6019;SDS011;3038;51.122;6.840;2022-10-31T10:30:47;21.70;;;16.33;;
6019;SDS011;3038;51.122;6.840;2022-10-31T10:33:23;16.17;;;14.47;;
6019;SDS011;3038;51.122;6.840;2022-10-31T10:35:54;19.53;;;14.53;;
6019;SDS011;3038;51.122;6.840;2022-10-31T10:40:55;14.30;;;12.80;;
6019;SDS011;3038;51.122;6.840;2022-10-31T10:45:50;15.03;;;13.20;;
6019;SDS011;3038;51.122;6.840;2022-10-31T10:49:17;14.57;;;13.00;;
6019;SDS011;3038;51.122;6.840;2022-10-31T10:51:50;14.63;;;12.20;;
6019;SDS011;3038;51.122;6.840;2022-10-31T11:02:45;14.47;;;11.63;;
6019;SDS011;3038;51.122;6.840;2022-10-31T11:05:15;14.97;;;10.93;;
6019;SDS011;3038;51.122;6.840;2022-10-31T11:07:47;12.17;;;10.87;;
6019;SDS011;3038;51.122;6.840;2022-10-31T11:10:13;16.93;;;11.67;;
6019;SDS011;3038;51.122;6.840;2022-10-31T11:12:39;13.53;;;11.13;;
6019;SDS011;3038;51.122;6.840;2022-10-31T11:15:17;10.60;;;9.50;;
6019;SDS011;3038;51.122;6.840;2022-10-31T11:17:47;14.67;;;10.77;;
6019;SDS011;3038;51.122;6.840;2022-10-31T11:22:43;14.60;;;10.93;;
6019;SDS011;3038;51.122;6.840;2022-10-31T11:27:45;15.87;;;10.70;;
6019;SDS011;3038;51.122;6.840;2022-10-31T11:30:12;12.33;;;9.10;;
6019;SDS011;3038;51.122;6.840;2022-10-31T11:32:43;15.03;;;10.60;;
6019;SDS011;3038;51.122;6.840;2022-10-31T11:35:16;11.60;;;10.10;;
6019;SDS011;3038;51.122;6.840;2022-10-31T11:37:44;15.20;;;8.40;;
6019;SDS011;3038;51.122;6.840;2022-10-31T11:40:15;10.10;;;8.90;;
6019;SDS011;3038;51.122;6.840;2022-10-31T11:42:41;15.50;;;9.27;;
6019;SDS011;3038;51.122;6.840;2022-10-31T11:45:15;10.30;;;9.10;;
6019;SDS011;3038;51.122;6.840;2022-10-31T11:47:45;12.13;;;9.03;;
6019;SDS011;3038;51.122;6.840;2022-10-31T11:50:18;13.27;;;8.83;;
6019;SDS011;3038;51.122;6.840;2022-10-31T11:52:47;9.17;;;8.33;;
6019;SDS011;3038;51.122;6.840;2022-10-31T11:55:25;11.63;;;8.00;;
6019;SDS011;3038;51.122;6.840;2022-10-31T11:57:57;9.60;;;6.77;;
6019;SDS011;3038;51.122;6.840;2022-10-31T12:02:50;12.43;;;9.00;;
6019;SDS011;3038;51.122;6.840;2022-10-31T12:05:19;9.50;;;7.47;;
6019;SDS011;3038;51.122;6.840;2022-10-31T12:07:50;10.57;;;7.90;;
6019;SDS011;3038;51.122;6.840;2022-10-31T12:10:16;8.80;;;7.80;;
6019;SDS011;3038;51.122;6.840;2022-10-31T12:13:30;11.20;;;6.90;;
6019;SDS011;3038;51.122;6.840;2022-10-31T12:15:59;9.60;;;7.03;;
6019;SDS011;3038;51.122;6.840;2022-10-31T12:27:13;13.43;;;7.30;;
6019;SDS011;3038;51.122;6.840;2022-10-31T12:44:02;8.43;;;7.33;;
6019;SDS011;3038;51.122;6.840;2022-10-31T12:46:19;6.77;;;6.00;;
6019;SDS011;3038;51.122;6.840;2022-10-31T12:52:14;6.90;;;6.20;;
6019;SDS011;3038;51.122;6.840;2022-10-31T13:10:34;12.43;;;7.17;;
6019;SDS011;3038;51.122;6.840;2022-10-31T13:15:53;10.60;;;7.30;;
6019;SDS011;3038;51.122;6.840;2022-10-31T13:18:38;14.27;;;7.20;;
6019;SDS011;3038;51.122;6.840;2022-10-31T13:21:09;10.40;;;6.57;;
6019;SDS011;3038;51.122;6.840;2022-10-31T13:23:41;11.50;;;6.43;;
6019;SDS011;3038;51.122;6.840;2022-10-31T13:26:11;11.87;;;7.07;;
6019;SDS011;3038;51.122;6.840;2022-10-31T13:31:56;8.70;;;6.57;;
6019;SDS011;3038;51.122;6.840;2022-10-31T13:34:30;8.83;;;6.67;;
6019;SDS011;3038;51.122;6.840;2022-10-31T13:37:11;12.93;;;7.83;;
6019;SDS011;3038;51.122;6.840;2022-10-31T13:39:48;11.80;;;6.80;;
6019;SDS011;3038;51.122;6.840;2022-10-31T13:45:11;10.80;;;7.00;;
6019;SDS011;3038;51.122;6.840;2022-10-31T13:47:41;10.73;;;6.40;;
6019;SDS011;3038;51.122;6.840;2022-10-31T13:50:22;9.53;;;6.40;;
6019;SDS011;3038;51.122;6.840;2022-10-31T13:58:32;13.30;;;6.53;;
6019;SDS011;3038;51.122;6.840;2022-10-31T14:01:10;9.60;;;6.13;;
6019;SDS011;3038;51.122;6.840;2022-10-31T14:03:42;9.00;;;6.13;;
6019;SDS011;3038;51.122;6.840;2022-10-31T14:06:11;8.50;;;6.33;;
6019;SDS011;3038;51.122;6.840;2022-10-31T14:08:40;9.90;;;6.20;;
6019;SDS011;3038;51.122;6.840;2022-10-31T14:11:18;8.40;;;6.53;;
6019;SDS011;3038;51.122;6.840;2022-10-31T14:13:52;8.93;;;6.30;;
6019;SDS011;3038;51.122;6.840;2022-10-31T14:16:26;10.07;;;6.90;;
6019;SDS011;3038;51.122;6.840;2022-10-31T14:19:06;10.30;;;7.03;;
6019;SDS011;3038;51.122;6.840;2022-10-31T14:21:40;10.27;;;6.57;;
6019;SDS011;3038;51.122;6.840;2022-10-31T14:24:14;12.50;;;6.80;;
6019;SDS011;3038;51.122;6.840;2022-10-31T14:26:58;9.57;;;6.03;;
6019;SDS011;3038;51.122;6.840;2022-10-31T14:29:25;7.63;;;6.33;;
6019;SDS011;3038;51.122;6.840;2022-10-31T14:31:53;9.97;;;5.60;;
6019;SDS011;3038;51.122;6.840;2022-10-31T14:34:41;7.77;;;5.97;;
6019;SDS011;3038;51.122;6.840;2022-10-31T14:45:36;10.70;;;6.33;;
6019;SDS011;3038;51.122;6.840;2022-10-31T14:50:58;15.73;;;6.50;;
6019;SDS011;3038;51.122;6.840;2022-10-31T14:53:28;9.90;;;6.00;;
6019;SDS011;3038;51.122;6.840;2022-10-31T14:56:04;13.53;;;6.23;;
6019;SDS011;3038;51.122;6.840;2022-10-31T14:58:37;11.57;;;6.67;;
6019;SDS011;3038;51.122;6.840;2022-10-31T15:01:05;11.13;;;6.03;;
6019;SDS011;3038;51.122;6.840;2022-10-31T15:03:33;8.00;;;6.33;;
6019;SDS011;3038;51.122;6.840;2022-10-31T15:06:11;11.57;;;7.00;;
6019;SDS011;3038;51.122;6.840;2022-10-31T15:08:44;14.63;;;7.03;;
6019;SDS011;3038;51.122;6.840;2022-10-31T15:11:12;9.83;;;6.10;;
6019;SDS011;3038;51.122;6.840;2022-10-31T15:13:49;10.70;;;5.93;;
6019;SDS011;3038;51.122;6.840;2022-10-31T15:16:21;8.77;;;6.20;;
6019;SDS011;3038;51.122;6.840;2022-10-31T15:18:51;10.50;;;7.10;;
6019;SDS011;3038;51.122;6.840;2022-10-31T15:21:17;10.70;;;7.17;;
6019;SDS011;3038;51.122;6.840;2022-10-31T15:23:45;11.93;;;7.40;;
6019;SDS011;3038;51.122;6.840;2022-10-31T15:26:18;6.43;;;5.70;;
6019;SDS011;3038;51.122;6.840;2022-10-31T15:28:56;10.27;;;7.10;;
6019;SDS011;3038;51.122;6.840;2022-10-31T15:31:24;10.83;;;6.50;;
6019;SDS011;3038;51.122;6.840;2022-10-31T15:33:49;16.33;;;6.73;;
6019;SDS011;3038;51.122;6.840;2022-10-31T15:36:23;15.37;;;7.13;;
6019;SDS011;3038;51.122;6.840;2022-10-31T15:38:50;10.80;;;6.27;;
6019;SDS011;3038;51.122;6.840;2022-10-31T15:41:35;12.07;;;6.53;;
6019;SDS011;3038;51.122;6.840;2022-10-31T15:44:57;10.43;;;5.63;;
6019;SDS011;3038;51.122;6.840;2022-10-31T15:47:06;11.50;;;6.30;;
6019;SDS011;3038;51.122;6.840;2022-10-31T15:49:41;7.90;;;5.67;;
6019;SDS011;3038;51.122;6.840;2022-10-31T15:52:17;7.93;;;5.50;;
6019;SDS011;3038;51.122;6.840;2022-10-31T15:54:50;11.27;;;6.60;;
6019;SDS011;3038;51.122;6.840;2022-10-31T15:57:21;8.97;;;5.10;;
6019;SDS011;3038;51.122;6.840;2022-10-31T15:59:48;8.57;;;5.00;;
6019;SDS011;3038;51.122;6.840;2022-10-31T16:02:17;10.40;;;5.37;;
6019;SDS011;3038;51.122;6.840;2022-10-31T16:04:56;8.50;;;5.23;;
6019;SDS011;3038;51.122;6.840;2022-10-31T16:07:23;10.40;;;5.80;;
6019;SDS011;3038;51.122;6.840;2022-10-31T16:09:54;8.10;;;5.03;;
6019;SDS011;3038;51.122;6.840;2022-10-31T16:12:21;8.30;;;5.93;;
6019;SDS011;3038;51.122;6.840;2022-10-31T16:14:48;8.67;;;5.30;;
6019;SDS011;3038;51.122;6.840;2022-10-31T16:17:19;11.17;;;5.17;;
6019;SDS011;3038;51.122;6.840;2022-10-31T16:19:57;12.03;;;5.70;;
6019;SDS011;3038;51.122;6.840;2022-10-31T16:22:35;7.70;;;4.97;;
6019;SDS011;3038;51.122;6.840;2022-10-31T16:27:34;9.20;;;5.60;;
6019;SDS011;3038;51.122;6.840;2022-10-31T16:30:02;8.23;;;4.50;;
6019;SDS011;3038;51.122;6.840;2022-10-31T16:32:55;9.50;;;5.27;;
6019;SDS011;3038;51.122;6.840;2022-10-31T16:35:28;11.67;;;5.83;;
6019;SDS011;3038;51.122;6.840;2022-10-31T16:37:57;10.83;;;5.70;;
6019;SDS011;3038;51.122;6.840;2022-10-31T16:40:23;11.90;;;5.87;;
6019;SDS011;3038;51.122;6.840;2022-10-31T16:42:49;7.43;;;5.33;;
6019;SDS011;3038;51.122;6.840;2022-10-31T16:45:16;13.40;;;5.83;;
6019;SDS011;3038;51.122;6.840;2022-10-31T16:47:43;7.87;;;5.00;;
6019;SDS011;3038;51.122;6.840;2022-10-31T16:50:25;12.67;;;5.77;;
6019;SDS011;3038;51.122;6.840;2022-10-31T16:52:52;8.40;;;5.17;;
6019;SDS011;3038;51.122;6.840;2022-10-31T16:55:18;7.30;;;5.43;;
6019;SDS011;3038;51.122;6.840;2022-10-31T16:57:46;9.47;;;5.40;;
6019;SDS011;3038;51.122;6.840;2022-10-31T17:00:15;8.17;;;5.97;;
6019;SDS011;3038;51.122;6.840;2022-10-31T17:02:43;7.77;;;6.40;;
6019;SDS011;3038;51.122;6.840;2022-10-31T17:05:13;12.23;;;6.40;;
6019;SDS011;3038;51.122;6.840;2022-10-31T17:07:40;8.47;;;5.90;;
6019;SDS011;3038;51.122;6.840;2022-10-31T17:10:06;10.33;;;6.70;;
6019;SDS011;3038;51.122;6.840;2022-10-31T17:12:32;10.27;;;8.03;;
6019;SDS011;3038;51.122;6.840;2022-10-31T17:14:58;8.00;;;5.73;;
6019;SDS011;3038;51.122;6.840;2022-10-31T17:17:24;15.63;;;6.80;;
6019;SDS011;3038;51.122;6.840;2022-10-31T17:19:49;8.47;;;6.80;;
6019;SDS011;3038;51.122;6.840;2022-10-31T17:22:15;9.60;;;5.80;;
6019;SDS011;3038;51.122;6.840;2022-10-31T17:24:40;8.87;;;5.97;;
6019;SDS011;3038;51.122;6.840;2022-10-31T17:27:06;11.50;;;6.37;;
6019;SDS011;3038;51.122;6.840;2022-10-31T17:29:31;10.00;;;7.67;;
6019;SDS011;3038;51.122;6.840;2022-10-31T17:31:57;9.30;;;5.87;;
6019;SDS011;3038;51.122;6.840;2022-10-31T17:34:23;8.13;;;6.07;;
6019;SDS011;3038;51.122;6.840;2022-10-31T17:36:49;8.90;;;5.60;;
6019;SDS011;3038;51.122;6.840;2022-10-31T17:39:15;8.03;;;6.20;;
6019;SDS011;3038;51.122;6.840;2022-10-31T17:41:41;8.13;;;5.90;;